sensor_id;sensor_type;location;lat;lon;timestamp;P1;durP1;ratioP1;P2;durP2;ratioP2
20375;SDS011;10347;51.828;6.466;2024-02-15T00:00:39;11.05;;;9.20;;
20375;SDS011;10347;51.828;6.466;2024-02-15T00:03:05;12.63;;;8.50;;
20375;SDS011;10347;51.828;6.466;2024-02-15T00:05:38;9.57;;;8.57;;
20375;SDS011;10347;51.828;6.466;2024-02-15T00:08:04;13.95;;;8.40;;
20375;SDS011;10347;51.828;6.466;2024-02-15T00:10:31;12.05;;;9.55;;
20375;SDS011;10347;51.828;6.466;2024-02-15T00:12:56;12.75;;;9.02;;
20375;SDS011;10347;51.828;6.466;2024-02-15T00:15:22;11.10;;;9.63;;
20375;SDS011;10347;51.828;6.466;2024-02-15T00:17:48;11.25;;;9.45;;
20375;SDS011;10347;51.828;6.466;2024-02-15T00:20:14;9.88;;;7.55;;
20375;SDS011;10347;51.828;6.466;2024-02-15T00:22:39;14.15;;;9.38;;
20375;SDS011;10347;51.828;6.466;2024-02-15T00:25:08;9.63;;;8.43;;
20375;SDS011;10347;51.828;6.466;2024-02-15T00:27:39;8.75;;;7.90;;
20375;SDS011;10347;51.828;6.466;2024-02-15T00:30:04;12.13;;;8.30;;
20375;SDS011;10347;51.828;6.466;2024-02-15T00:32:32;11.63;;;8.35;;
20375;SDS011;10347;51.828;6.466;2024-02-15T00:35:01;9.52;;;8.60;;
20375;SDS011;10347;51.828;6.466;2024-02-15T00:37:31;10.13;;;8.55;;
20375;SDS011;10347;51.828;6.466;2024-02-15T00:39:56;10.93;;;9.45;;
20375;SDS011;10347;51.828;6.466;2024-02-15T00:42:22;11.43;;;9.88;;
20375;SDS011;10347;51.828;6.466;2024-02-15T00:44:47;9.90;;;8.90;;
20375;SDS011;10347;51.828;6.466;2024-02-15T00:47:13;10.80;;;9.75;;
20375;SDS011;10347;51.828;6.466;2024-02-15T00:49:38;9.25;;;8.35;;
20375;SDS011;10347;51.828;6.466;2024-02-15T00:52:04;10.18;;;9.07;;
20375;SDS011;10347;51.828;6.466;2024-02-15T00:54:30;10.52;;;9.13;;
20375;SDS011;10347;51.828;6.466;2024-02-15T00:56:56;12.13;;;10.85;;
20375;SDS011;10347;51.828;6.466;2024-02-15T00:59:21;14.73;;;11.80;;
20375;SDS011;10347;51.828;6.466;2024-02-15T01:01:47;14.70;;;11.68;;
20375;SDS011;10347;51.828;6.466;2024-02-15T01:04:13;13.65;;;10.65;;
20375;SDS011;10347;51.828;6.466;2024-02-15T01:06:39;15.98;;;10.60;;
20375;SDS011;10347;51.828;6.466;2024-02-15T01:09:04;10.52;;;9.48;;
20375;SDS011;10347;51.828;6.466;2024-02-15T01:11:30;13.45;;;10.38;;
20375;SDS011;10347;51.828;6.466;2024-02-15T01:14:00;10.13;;;9.15;;
20375;SDS011;10347;51.828;6.466;2024-02-15T01:16:26;12.82;;;10.75;;
20375;SDS011;10347;51.828;6.466;2024-02-15T01:18:51;13.73;;;10.20;;
20375;SDS011;10347;51.828;6.466;2024-02-15T01:21:17;14.25;;;10.98;;
20375;SDS011;10347;51.828;6.466;2024-02-15T01:23:44;14.10;;;10.43;;
20375;SDS011;10347;51.828;6.466;2024-02-15T01:26:11;11.93;;;10.48;;
20375;SDS011;10347;51.828;6.466;2024-02-15T01:28:38;10.55;;;9.38;;
20375;SDS011;10347;51.828;6.466;2024-02-15T01:31:07;16.98;;;11.20;;
20375;SDS011;10347;51.828;6.466;2024-02-15T01:33:34;14.25;;;10.63;;
20375;SDS011;10347;51.828;6.466;2024-02-15T01:36:01;19.52;;;10.80;;
20375;SDS011;10347;51.828;6.466;2024-02-15T01:38:27;16.33;;;10.60;;
20375;SDS011;10347;51.828;6.466;2024-02-15T01:40:53;13.85;;;8.93;;
20375;SDS011;10347;51.828;6.466;2024-02-15T01:43:18;11.82;;;9.20;;
20375;SDS011;10347;51.828;6.466;2024-02-15T01:45:44;10.57;;;8.57;;
20375;SDS011;10347;51.828;6.466;2024-02-15T01:48:12;12.20;;;8.85;;
20375;SDS011;10347;51.828;6.466;2024-02-15T01:50:39;10.98;;;8.20;;
20375;SDS011;10347;51.828;6.466;2024-02-15T01:53:06;11.48;;;8.65;;
20375;SDS011;10347;51.828;6.466;2024-02-15T01:55:33;10.52;;;7.78;;
20375;SDS011;10347;51.828;6.466;2024-02-15T01:58:00;12.20;;;8.10;;
20375;SDS011;10347;51.828;6.466;2024-02-15T02:00:26;9.98;;;7.60;;
20375;SDS011;10347;51.828;6.466;2024-02-15T02:02:52;11.05;;;8.25;;
20375;SDS011;10347;51.828;6.466;2024-02-15T02:05:24;12.75;;;8.20;;
20375;SDS011;10347;51.828;6.466;2024-02-15T02:07:53;12.60;;;9.00;;
20375;SDS011;10347;51.828;6.466;2024-02-15T02:10:18;12.57;;;7.72;;
20375;SDS011;10347;51.828;6.466;2024-02-15T02:12:44;9.45;;;7.68;;
20375;SDS011;10347;51.828;6.466;2024-02-15T02:15:10;11.10;;;7.13;;
20375;SDS011;10347;51.828;6.466;2024-02-15T02:17:36;10.13;;;7.00;;
20375;SDS011;10347;51.828;6.466;2024-02-15T02:20:02;12.75;;;6.85;;
20375;SDS011;10347;51.828;6.466;2024-02-15T02:22:33;15.18;;;7.10;;
20375;SDS011;10347;51.828;6.466;2024-02-15T02:25:07;10.50;;;7.05;;
20375;SDS011;10347;51.828;6.466;2024-02-15T02:27:33;9.95;;;6.47;;
20375;SDS011;10347;51.828;6.466;2024-02-15T02:29:59;9.23;;;6.57;;
20375;SDS011;10347;51.828;6.466;2024-02-15T02:32:28;9.80;;;5.88;;
20375;SDS011;10347;51.828;6.466;2024-02-15T02:34:54;11.80;;;6.65;;
20375;SDS011;10347;51.828;6.466;2024-02-15T02:37:24;8.02;;;6.60;;
20375;SDS011;10347;51.828;6.466;2024-02-15T02:39:50;6.75;;;5.88;;
20375;SDS011;10347;51.828;6.466;2024-02-15T02:42:16;9.25;;;6.03;;
20375;SDS011;10347;51.828;6.466;2024-02-15T02:44:41;8.43;;;6.28;;
20375;SDS011;10347;51.828;6.466;2024-02-15T02:47:07;12.32;;;7.43;;
20375;SDS011;10347;51.828;6.466;2024-02-15T02:49:34;12.40;;;7.57;;
20375;SDS011;10347;51.828;6.466;2024-02-15T02:52:00;14.88;;;9.00;;
20375;SDS011;10347;51.828;6.466;2024-02-15T02:54:26;13.57;;;7.47;;
20375;SDS011;10347;51.828;6.466;2024-02-15T02:56:51;10.50;;;7.68;;
20375;SDS011;10347;51.828;6.466;2024-02-15T02:59:17;13.55;;;8.80;;
20375;SDS011;10347;51.828;6.466;2024-02-15T03:01:43;16.85;;;9.52;;
20375;SDS011;10347;51.828;6.466;2024-02-15T03:04:08;15.65;;;8.73;;
20375;SDS011;10347;51.828;6.466;2024-02-15T03:06:34;11.57;;;7.88;;
20375;SDS011;10347;51.828;6.466;2024-02-15T03:09:00;12.48;;;7.60;;
20375;SDS011;10347;51.828;6.466;2024-02-15T03:11:29;11.63;;;7.20;;
20375;SDS011;10347;51.828;6.466;2024-02-15T03:13:54;11.77;;;6.90;;
20375;SDS011;10347;51.828;6.466;2024-02-15T03:16:23;11.25;;;6.88;;
20375;SDS011;10347;51.828;6.466;2024-02-15T03:18:50;11.32;;;6.43;;
20375;SDS011;10347;51.828;6.466;2024-02-15T03:21:16;9.73;;;6.00;;
20375;SDS011;10347;51.828;6.466;2024-02-15T03:23:42;9.35;;;5.90;;
20375;SDS011;10347;51.828;6.466;2024-02-15T03:26:08;10.23;;;5.90;;
20375;SDS011;10347;51.828;6.466;2024-02-15T03:28:34;9.60;;;6.15;;
20375;SDS011;10347;51.828;6.466;2024-02-15T03:31:02;8.48;;;5.30;;
20375;SDS011;10347;51.828;6.466;2024-02-15T03:33:28;9.10;;;5.20;;
20375;SDS011;10347;51.828;6.466;2024-02-15T03:35:59;12.88;;;5.50;;
20375;SDS011;10347;51.828;6.466;2024-02-15T03:38:25;12.80;;;5.75;;
20375;SDS011;10347;51.828;6.466;2024-02-15T03:40:51;10.20;;;5.60;;
20375;SDS011;10347;51.828;6.466;2024-02-15T03:43:18;9.32;;;4.60;;
20375;SDS011;10347;51.828;6.466;2024-02-15T03:45:44;8.50;;;4.70;;
20375;SDS011;10347;51.828;6.466;2024-02-15T03:48:09;9.13;;;4.88;;
20375;SDS011;10347;51.828;6.466;2024-02-15T03:50:35;8.50;;;4.85;;
20375;SDS011;10347;51.828;6.466;2024-02-15T03:53:01;8.48;;;5.22;;
20375;SDS011;10347;51.828;6.466;2024-02-15T03:55:26;6.63;;;4.68;;
20375;SDS011;10347;51.828;6.466;2024-02-15T03:57:52;9.07;;;4.55;;
20375;SDS011;10347;51.828;6.466;2024-02-15T04:00:20;12.55;;;4.82;;
20375;SDS011;10347;51.828;6.466;2024-02-15T04:02:46;7.78;;;4.45;;
20375;SDS011;10347;51.828;6.466;2024-02-15T04:05:15;9.15;;;4.30;;
20375;SDS011;10347;51.828;6.466;2024-02-15T04:07:43;8.18;;;4.93;;
20375;SDS011;10347;51.828;6.466;2024-02-15T04:10:09;9.88;;;4.85;;
20375;SDS011;10347;51.828;6.466;2024-02-15T04:12:35;8.20;;;4.78;;
20375;SDS011;10347;51.828;6.466;2024-02-15T04:15:01;9.00;;;4.25;;
20375;SDS011;10347;51.828;6.466;2024-02-15T04:17:32;10.43;;;4.57;;
20375;SDS011;10347;51.828;6.466;2024-02-15T04:20:00;11.00;;;4.13;;
20375;SDS011;10347;51.828;6.466;2024-02-15T04:22:26;8.70;;;4.28;;
20375;SDS011;10347;51.828;6.466;2024-02-15T04:24:51;6.20;;;3.80;;
20375;SDS011;10347;51.828;6.466;2024-02-15T04:27:17;10.45;;;4.90;;
20375;SDS011;10347;51.828;6.466;2024-02-15T04:29:45;8.18;;;4.30;;
20375;SDS011;10347;51.828;6.466;2024-02-15T04:32:12;9.35;;;4.00;;
20375;SDS011;10347;51.828;6.466;2024-02-15T04:34:38;9.68;;;3.70;;
20375;SDS011;10347;51.828;6.466;2024-02-15T04:37:07;9.48;;;4.40;;
20375;SDS011;10347;51.828;6.466;2024-02-15T04:39:33;4.28;;;3.22;;
20375;SDS011;10347;51.828;6.466;2024-02-15T04:42:00;6.40;;;3.35;;
20375;SDS011;10347;51.828;6.466;2024-02-15T04:44:26;8.18;;;3.78;;
20375;SDS011;10347;51.828;6.466;2024-02-15T04:46:55;7.82;;;3.53;;
20375;SDS011;10347;51.828;6.466;2024-02-15T04:49:21;10.50;;;3.83;;
20375;SDS011;10347;51.828;6.466;2024-02-15T04:51:47;8.20;;;3.70;;
20375;SDS011;10347;51.828;6.466;2024-02-15T04:54:14;7.55;;;4.28;;
20375;SDS011;10347;51.828;6.466;2024-02-15T04:56:40;7.75;;;4.20;;
20375;SDS011;10347;51.828;6.466;2024-02-15T04:59:06;9.65;;;4.32;;
20375;SDS011;10347;51.828;6.466;2024-02-15T05:01:40;6.70;;;4.10;;
20375;SDS011;10347;51.828;6.466;2024-02-15T05:04:07;10.27;;;4.18;;
20375;SDS011;10347;51.828;6.466;2024-02-15T05:06:34;7.60;;;4.43;;
20375;SDS011;10347;51.828;6.466;2024-02-15T05:09:01;9.82;;;4.05;;
20375;SDS011;10347;51.828;6.466;2024-02-15T05:11:32;7.22;;;3.92;;
20375;SDS011;10347;51.828;6.466;2024-02-15T05:14:01;9.85;;;4.30;;
20375;SDS011;10347;51.828;6.466;2024-02-15T05:16:29;11.68;;;5.20;;
20375;SDS011;10347;51.828;6.466;2024-02-15T05:18:56;8.50;;;4.43;;
20375;SDS011;10347;51.828;6.466;2024-02-15T05:21:22;9.70;;;4.50;;
20375;SDS011;10347;51.828;6.466;2024-02-15T05:23:47;13.43;;;4.30;;
20375;SDS011;10347;51.828;6.466;2024-02-15T05:26:13;7.65;;;4.05;;
20375;SDS011;10347;51.828;6.466;2024-02-15T05:28:41;8.55;;;4.25;;
20375;SDS011;10347;51.828;6.466;2024-02-15T05:31:09;6.80;;;4.30;;
20375;SDS011;10347;51.828;6.466;2024-02-15T05:33:48;7.22;;;4.30;;
20375;SDS011;10347;51.828;6.466;2024-02-15T05:36:15;5.97;;;3.60;;
20375;SDS011;10347;51.828;6.466;2024-02-15T05:38:45;9.00;;;4.10;;
20375;SDS011;10347;51.828;6.466;2024-02-15T05:41:14;7.43;;;3.47;;
20375;SDS011;10347;51.828;6.466;2024-02-15T05:43:41;6.75;;;3.38;;
20375;SDS011;10347;51.828;6.466;2024-02-15T05:46:07;7.38;;;3.83;;
20375;SDS011;10347;51.828;6.466;2024-02-15T05:48:34;7.53;;;3.92;;
20375;SDS011;10347;51.828;6.466;2024-02-15T05:51:01;9.55;;;3.35;;
20375;SDS011;10347;51.828;6.466;2024-02-15T05:53:28;7.82;;;4.10;;
20375;SDS011;10347;51.828;6.466;2024-02-15T05:55:54;6.03;;;3.63;;
20375;SDS011;10347;51.828;6.466;2024-02-15T05:58:20;11.90;;;3.65;;
20375;SDS011;10347;51.828;6.466;2024-02-15T06:00:46;7.63;;;3.70;;
20375;SDS011;10347;51.828;6.466;2024-02-15T06:03:17;6.28;;;3.40;;
20375;SDS011;10347;51.828;6.466;2024-02-15T06:05:43;8.23;;;3.63;;
20375;SDS011;10347;51.828;6.466;2024-02-15T06:08:10;6.75;;;3.35;;
20375;SDS011;10347;51.828;6.466;2024-02-15T06:10:38;8.50;;;3.00;;
20375;SDS011;10347;51.828;6.466;2024-02-15T06:13:07;6.85;;;3.30;;
20375;SDS011;10347;51.828;6.466;2024-02-15T06:15:36;8.70;;;3.63;;
20375;SDS011;10347;51.828;6.466;2024-02-15T06:18:02;5.22;;;3.05;;
20375;SDS011;10347;51.828;6.466;2024-02-15T06:20:34;6.60;;;2.90;;
20375;SDS011;10347;51.828;6.466;2024-02-15T06:23:00;7.00;;;3.05;;
20375;SDS011;10347;51.828;6.466;2024-02-15T06:25:28;4.50;;;2.92;;
20375;SDS011;10347;51.828;6.466;2024-02-15T06:27:53;4.20;;;3.00;;
20375;SDS011;10347;51.828;6.466;2024-02-15T06:30:26;6.35;;;3.33;;
20375;SDS011;10347;51.828;6.466;2024-02-15T06:33:11;4.30;;;2.50;;
20375;SDS011;10347;51.828;6.466;2024-02-15T06:35:55;7.95;;;3.15;;
20375;SDS011;10347;51.828;6.466;2024-02-15T06:38:44;8.57;;;3.08;;
20375;SDS011;10347;51.828;6.466;2024-02-15T06:41:28;6.70;;;3.63;;
20375;SDS011;10347;51.828;6.466;2024-02-15T06:43:54;9.32;;;3.17;;
20375;SDS011;10347;51.828;6.466;2024-02-15T06:46:20;8.00;;;3.15;;
20375;SDS011;10347;51.828;6.466;2024-02-15T06:48:46;8.55;;;3.10;;
20375;SDS011;10347;51.828;6.466;2024-02-15T06:51:12;6.72;;;3.20;;
20375;SDS011;10347;51.828;6.466;2024-02-15T06:53:39;6.88;;;3.40;;
20375;SDS011;10347;51.828;6.466;2024-02-15T06:56:05;8.68;;;3.47;;
20375;SDS011;10347;51.828;6.466;2024-02-15T06:58:34;5.63;;;2.83;;
20375;SDS011;10347;51.828;6.466;2024-02-15T07:01:00;8.65;;;3.30;;
20375;SDS011;10347;51.828;6.466;2024-02-15T07:03:25;7.13;;;2.95;;
20375;SDS011;10347;51.828;6.466;2024-02-15T07:05:54;5.03;;;2.92;;
20375;SDS011;10347;51.828;6.466;2024-02-15T07:08:21;7.85;;;3.08;;
20375;SDS011;10347;51.828;6.466;2024-02-15T07:10:48;7.18;;;3.13;;
20375;SDS011;10347;51.828;6.466;2024-02-15T07:13:14;6.07;;;2.95;;
20375;SDS011;10347;51.828;6.466;2024-02-15T07:15:39;3.13;;;2.42;;
20375;SDS011;10347;51.828;6.466;2024-02-15T07:18:05;5.47;;;2.58;;
20375;SDS011;10347;51.828;6.466;2024-02-15T07:20:34;7.07;;;2.90;;
20375;SDS011;10347;51.828;6.466;2024-02-15T07:23:00;8.32;;;3.00;;
20375;SDS011;10347;51.828;6.466;2024-02-15T07:25:26;6.32;;;3.08;;
20375;SDS011;10347;51.828;6.466;2024-02-15T07:27:51;5.78;;;3.10;;
20375;SDS011;10347;51.828;6.466;2024-02-15T07:30:19;8.95;;;3.05;;
20375;SDS011;10347;51.828;6.466;2024-02-15T07:32:44;6.35;;;3.10;;
20375;SDS011;10347;51.828;6.466;2024-02-15T07:35:10;5.93;;;3.00;;
20375;SDS011;10347;51.828;6.466;2024-02-15T07:37:36;4.38;;;2.60;;
20375;SDS011;10347;51.828;6.466;2024-02-15T07:40:05;2.15;;;2.00;;
20375;SDS011;10347;51.828;6.466;2024-02-15T07:42:33;8.02;;;2.63;;
20375;SDS011;10347;51.828;6.466;2024-02-15T07:45:00;3.30;;;2.22;;
20375;SDS011;10347;51.828;6.466;2024-02-15T07:47:25;8.13;;;2.53;;
20375;SDS011;10347;51.828;6.466;2024-02-15T07:49:51;6.28;;;3.28;;
20375;SDS011;10347;51.828;6.466;2024-02-15T07:52:17;6.55;;;2.33;;
20375;SDS011;10347;51.828;6.466;2024-02-15T07:54:43;5.38;;;2.60;;
20375;SDS011;10347;51.828;6.466;2024-02-15T07:57:09;6.72;;;2.53;;
20375;SDS011;10347;51.828;6.466;2024-02-15T07:59:36;8.00;;;2.58;;
20375;SDS011;10347;51.828;6.466;2024-02-15T08:02:04;7.60;;;2.58;;
20375;SDS011;10347;51.828;6.466;2024-02-15T08:04:30;4.40;;;2.78;;
20375;SDS011;10347;51.828;6.466;2024-02-15T08:06:56;7.53;;;2.92;;
20375;SDS011;10347;51.828;6.466;2024-02-15T08:09:22;9.35;;;3.35;;
20375;SDS011;10347;51.828;6.466;2024-02-15T08:11:49;6.55;;;2.70;;
20375;SDS011;10347;51.828;6.466;2024-02-15T08:14:16;6.85;;;2.90;;
20375;SDS011;10347;51.828;6.466;2024-02-15T08:16:41;5.13;;;2.65;;
20375;SDS011;10347;51.828;6.466;2024-02-15T08:19:07;6.95;;;2.50;;
20375;SDS011;10347;51.828;6.466;2024-02-15T08:21:33;5.20;;;2.30;;
20375;SDS011;10347;51.828;6.466;2024-02-15T08:24:04;6.32;;;2.78;;
20375;SDS011;10347;51.828;6.466;2024-02-15T08:26:35;6.00;;;2.40;;
20375;SDS011;10347;51.828;6.466;2024-02-15T08:29:02;5.10;;;2.70;;
20375;SDS011;10347;51.828;6.466;2024-02-15T08:31:28;6.65;;;2.60;;
20375;SDS011;10347;51.828;6.466;2024-02-15T08:33:56;5.45;;;2.60;;
20375;SDS011;10347;51.828;6.466;2024-02-15T08:36:21;6.35;;;2.30;;
20375;SDS011;10347;51.828;6.466;2024-02-15T08:38:49;3.13;;;2.40;;
20375;SDS011;10347;51.828;6.466;2024-02-15T08:41:15;7.00;;;2.95;;
20375;SDS011;10347;51.828;6.466;2024-02-15T08:43:43;5.32;;;2.33;;
20375;SDS011;10347;51.828;6.466;2024-02-15T08:46:11;3.40;;;2.30;;
20375;SDS011;10347;51.828;6.466;2024-02-15T08:48:37;4.88;;;2.60;;
20375;SDS011;10347;51.828;6.466;2024-02-15T08:51:03;4.40;;;2.30;;
20375;SDS011;10347;51.828;6.466;2024-02-15T08:53:30;3.33;;;2.58;;
20375;SDS011;10347;51.828;6.466;2024-02-15T08:55:56;8.15;;;2.47;;
20375;SDS011;10347;51.828;6.466;2024-02-15T08:58:22;4.00;;;2.58;;
20375;SDS011;10347;51.828;6.466;2024-02-15T09:00:48;5.05;;;2.65;;
20375;SDS011;10347;51.828;6.466;2024-02-15T09:03:13;7.25;;;2.38;;
20375;SDS011;10347;51.828;6.466;2024-02-15T09:05:39;3.50;;;2.10;;
20375;SDS011;10347;51.828;6.466;2024-02-15T09:08:08;6.25;;;2.70;;
20375;SDS011;10347;51.828;6.466;2024-02-15T09:10:34;2.97;;;2.22;;
20375;SDS011;10347;51.828;6.466;2024-02-15T09:13:01;4.60;;;2.10;;
20375;SDS011;10347;51.828;6.466;2024-02-15T09:15:27;2.20;;;2.00;;
20375;SDS011;10347;51.828;6.466;2024-02-15T09:17:55;3.70;;;2.55;;
20375;SDS011;10347;51.828;6.466;2024-02-15T09:20:22;3.95;;;1.90;;
20375;SDS011;10347;51.828;6.466;2024-02-15T09:22:53;3.25;;;2.13;;
20375;SDS011;10347;51.828;6.466;2024-02-15T09:25:20;4.88;;;2.22;;
20375;SDS011;10347;51.828;6.466;2024-02-15T09:27:49;3.35;;;1.85;;
20375;SDS011;10347;51.828;6.466;2024-02-15T09:30:16;4.13;;;2.25;;
20375;SDS011;10347;51.828;6.466;2024-02-15T09:32:43;3.13;;;2.00;;
20375;SDS011;10347;51.828;6.466;2024-02-15T09:35:09;3.42;;;2.10;;
20375;SDS011;10347;51.828;6.466;2024-02-15T09:37:46;3.42;;;2.00;;
20375;SDS011;10347;51.828;6.466;2024-02-15T09:40:17;2.90;;;2.10;;
20375;SDS011;10347;51.828;6.466;2024-02-15T09:42:44;2.58;;;1.85;;
20375;SDS011;10347;51.828;6.466;2024-02-15T09:45:11;4.72;;;1.90;;
20375;SDS011;10347;51.828;6.466;2024-02-15T09:47:41;4.50;;;2.20;;
20375;SDS011;10347;51.828;6.466;2024-02-15T09:50:08;2.10;;;1.83;;
20375;SDS011;10347;51.828;6.466;2024-02-15T09:52:43;3.63;;;2.33;;
20375;SDS011;10347;51.828;6.466;2024-02-15T09:55:21;3.78;;;2.28;;
20375;SDS011;10347;51.828;6.466;2024-02-15T09:57:48;3.83;;;2.10;;
20375;SDS011;10347;51.828;6.466;2024-02-15T10:00:15;3.50;;;1.70;;
20375;SDS011;10347;51.828;6.466;2024-02-15T10:02:46;2.47;;;1.80;;
20375;SDS011;10347;51.828;6.466;2024-02-15T10:05:13;1.83;;;1.70;;
20375;SDS011;10347;51.828;6.466;2024-02-15T10:07:39;2.63;;;1.77;;
20375;SDS011;10347;51.828;6.466;2024-02-15T10:10:14;1.83;;;1.73;;
20375;SDS011;10347;51.828;6.466;2024-02-15T10:12:48;2.97;;;1.92;;
20375;SDS011;10347;51.828;6.466;2024-02-15T10:18:02;4.10;;;2.00;;
20375;SDS011;10347;51.828;6.466;2024-02-15T10:20:29;2.05;;;1.85;;
20375;SDS011;10347;51.828;6.466;2024-02-15T10:25:23;3.92;;;1.88;;
20375;SDS011;10347;51.828;6.466;2024-02-15T10:27:52;2.85;;;2.13;;
20375;SDS011;10347;51.828;6.466;2024-02-15T10:30:31;3.40;;;2.20;;
20375;SDS011;10347;51.828;6.466;2024-02-15T10:32:59;6.10;;;2.22;;
20375;SDS011;10347;51.828;6.466;2024-02-15T10:35:24;4.03;;;2.50;;
20375;SDS011;10347;51.828;6.466;2024-02-15T10:37:50;5.18;;;2.70;;
20375;SDS011;10347;51.828;6.466;2024-02-15T10:40:19;5.28;;;2.50;;
20375;SDS011;10347;51.828;6.466;2024-02-15T10:42:48;6.35;;;2.85;;
20375;SDS011;10347;51.828;6.466;2024-02-15T10:45:16;6.45;;;3.28;;
20375;SDS011;10347;51.828;6.466;2024-02-15T10:47:45;2.90;;;2.10;;
20375;SDS011;10347;51.828;6.466;2024-02-15T10:50:12;3.75;;;2.38;;
20375;SDS011;10347;51.828;6.466;2024-02-15T10:52:41;6.28;;;2.80;;
20375;SDS011;10347;51.828;6.466;2024-02-15T10:55:17;5.57;;;2.40;;
20375;SDS011;10347;51.828;6.466;2024-02-15T10:58:01;4.90;;;2.70;;
20375;SDS011;10347;51.828;6.466;2024-02-15T11:00:28;4.25;;;2.78;;
20375;SDS011;10347;51.828;6.466;2024-02-15T11:03:01;5.38;;;2.92;;
20375;SDS011;10347;51.828;6.466;2024-02-15T11:05:29;4.75;;;2.47;;
20375;SDS011;10347;51.828;6.466;2024-02-15T11:07:59;3.92;;;2.50;;
20375;SDS011;10347;51.828;6.466;2024-02-15T11:10:27;6.40;;;2.67;;
20375;SDS011;10347;51.828;6.466;2024-02-15T11:12:53;5.38;;;2.72;;
20375;SDS011;10347;51.828;6.466;2024-02-15T11:18:35;5.80;;;2.90;;
20375;SDS011;10347;51.828;6.466;2024-02-15T11:21:10;7.13;;;3.30;;
20375;SDS011;10347;51.828;6.466;2024-02-15T11:23:36;5.28;;;3.08;;
20375;SDS011;10347;51.828;6.466;2024-02-15T11:26:01;8.50;;;3.47;;
20375;SDS011;10347;51.828;6.466;2024-02-15T11:30:54;6.70;;;2.78;;
20375;SDS011;10347;51.828;6.466;2024-02-15T11:33:30;4.30;;;3.05;;
20375;SDS011;10347;51.828;6.466;2024-02-15T11:36:06;5.00;;;2.85;;
20375;SDS011;10347;51.828;6.466;2024-02-15T11:38:33;5.18;;;3.05;;
20375;SDS011;10347;51.828;6.466;2024-02-15T11:41:00;6.13;;;3.03;;
20375;SDS011;10347;51.828;6.466;2024-02-15T11:46:25;7.93;;;3.15;;
20375;SDS011;10347;51.828;6.466;2024-02-15T11:48:59;4.07;;;2.35;;
20375;SDS011;10347;51.828;6.466;2024-02-15T11:56:48;5.28;;;2.83;;
20375;SDS011;10347;51.828;6.466;2024-02-15T11:59:19;6.20;;;2.92;;
20375;SDS011;10347;51.828;6.466;2024-02-15T12:01:56;4.65;;;2.50;;
20375;SDS011;10347;51.828;6.466;2024-02-15T12:04:41;4.97;;;2.67;;
20375;SDS011;10347;51.828;6.466;2024-02-15T12:07:29;5.05;;;2.83;;
20375;SDS011;10347;51.828;6.466;2024-02-15T12:10:17;3.83;;;2.50;;
20375;SDS011;10347;51.828;6.466;2024-02-15T12:13:02;3.53;;;2.40;;
20375;SDS011;10347;51.828;6.466;2024-02-15T12:16:08;2.65;;;2.42;;
20375;SDS011;10347;51.828;6.466;2024-02-15T12:18:51;2.90;;;2.30;;
20375;SDS011;10347;51.828;6.466;2024-02-15T12:21:19;7.53;;;2.70;;
20375;SDS011;10347;51.828;6.466;2024-02-15T12:23:49;5.65;;;2.72;;
20375;SDS011;10347;51.828;6.466;2024-02-15T12:26:18;3.13;;;2.45;;
20375;SDS011;10347;51.828;6.466;2024-02-15T12:28:44;4.85;;;2.22;;
20375;SDS011;10347;51.828;6.466;2024-02-15T12:31:16;4.32;;;2.15;;
20375;SDS011;10347;51.828;6.466;2024-02-15T12:33:42;3.25;;;2.20;;
20375;SDS011;10347;51.828;6.466;2024-02-15T12:36:08;3.53;;;2.05;;
20375;SDS011;10347;51.828;6.466;2024-02-15T12:38:34;3.03;;;2.10;;
20375;SDS011;10347;51.828;6.466;2024-02-15T12:41:02;5.18;;;2.65;;
20375;SDS011;10347;51.828;6.466;2024-02-15T12:43:54;3.78;;;2.05;;
20375;SDS011;10347;51.828;6.466;2024-02-15T12:46:22;3.90;;;2.35;;
20375;SDS011;10347;51.828;6.466;2024-02-15T12:48:47;4.30;;;2.00;;
20375;SDS011;10347;51.828;6.466;2024-02-15T12:51:14;2.42;;;1.90;;
20375;SDS011;10347;51.828;6.466;2024-02-15T12:53:40;4.35;;;2.17;;
20375;SDS011;10347;51.828;6.466;2024-02-15T12:56:07;2.65;;;2.00;;
20375;SDS011;10347;51.828;6.466;2024-02-15T12:58:34;4.10;;;2.20;;
20375;SDS011;10347;51.828;6.466;2024-02-15T13:01:00;3.05;;;2.17;;
20375;SDS011;10347;51.828;6.466;2024-02-15T13:03:26;4.57;;;2.25;;
20375;SDS011;10347;51.828;6.466;2024-02-15T13:05:52;4.43;;;2.30;;
20375;SDS011;10347;51.828;6.466;2024-02-15T13:08:18;4.28;;;2.38;;
20375;SDS011;10347;51.828;6.466;2024-02-15T13:10:44;3.80;;;2.03;;
20375;SDS011;10347;51.828;6.466;2024-02-15T13:13:11;2.45;;;1.95;;
20375;SDS011;10347;51.828;6.466;2024-02-15T13:15:41;4.80;;;2.40;;
20375;SDS011;10347;51.828;6.466;2024-02-15T13:18:07;5.13;;;2.60;;
20375;SDS011;10347;51.828;6.466;2024-02-15T13:20:36;2.80;;;1.98;;
20375;SDS011;10347;51.828;6.466;2024-02-15T13:23:06;3.67;;;2.35;;
20375;SDS011;10347;51.828;6.466;2024-02-15T13:25:41;3.15;;;2.28;;
20375;SDS011;10347;51.828;6.466;2024-02-15T13:28:08;5.72;;;2.10;;
20375;SDS011;10347;51.828;6.466;2024-02-15T13:30:38;3.78;;;2.33;;
20375;SDS011;10347;51.828;6.466;2024-02-15T13:33:04;3.05;;;2.15;;
20375;SDS011;10347;51.828;6.466;2024-02-15T13:35:31;4.05;;;2.53;;
20375;SDS011;10347;51.828;6.466;2024-02-15T13:37:57;5.00;;;2.35;;
20375;SDS011;10347;51.828;6.466;2024-02-15T13:40:23;2.60;;;1.98;;
20375;SDS011;10347;51.828;6.466;2024-02-15T13:42:51;3.22;;;2.05;;
20375;SDS011;10347;51.828;6.466;2024-02-15T13:45:20;3.00;;;2.05;;
20375;SDS011;10347;51.828;6.466;2024-02-15T13:47:47;3.75;;;1.88;;
20375;SDS011;10347;51.828;6.466;2024-02-15T13:50:14;3.88;;;2.08;;
20375;SDS011;10347;51.828;6.466;2024-02-15T13:52:46;5.30;;;1.92;;
20375;SDS011;10347;51.828;6.466;2024-02-15T13:55:13;3.45;;;2.00;;
20375;SDS011;10347;51.828;6.466;2024-02-15T13:57:40;4.13;;;2.08;;
20375;SDS011;10347;51.828;6.466;2024-02-15T14:00:10;3.45;;;1.90;;
20375;SDS011;10347;51.828;6.466;2024-02-15T14:02:49;4.78;;;2.13;;
20375;SDS011;10347;51.828;6.466;2024-02-15T14:05:16;2.33;;;1.88;;
20375;SDS011;10347;51.828;6.466;2024-02-15T14:07:48;4.78;;;1.90;;
20375;SDS011;10347;51.828;6.466;2024-02-15T14:10:15;2.75;;;1.73;;
20375;SDS011;10347;51.828;6.466;2024-02-15T14:12:43;3.83;;;2.30;;
20375;SDS011;10347;51.828;6.466;2024-02-15T14:15:10;3.17;;;1.65;;
20375;SDS011;10347;51.828;6.466;2024-02-15T14:17:36;4.47;;;2.03;;
20375;SDS011;10347;51.828;6.466;2024-02-15T14:20:02;1.77;;;1.65;;
20375;SDS011;10347;51.828;6.466;2024-02-15T14:22:33;3.53;;;2.10;;
20375;SDS011;10347;51.828;6.466;2024-02-15T14:24:59;4.00;;;2.47;;
20375;SDS011;10347;51.828;6.466;2024-02-15T14:27:25;2.75;;;1.90;;
20375;SDS011;10347;51.828;6.466;2024-02-15T14:29:50;4.05;;;2.03;;
20375;SDS011;10347;51.828;6.466;2024-02-15T14:32:34;3.28;;;1.70;;
20375;SDS011;10347;51.828;6.466;2024-02-15T14:35:19;2.50;;;1.67;;
20375;SDS011;10347;51.828;6.466;2024-02-15T14:37:45;2.88;;;1.70;;
20375;SDS011;10347;51.828;6.466;2024-02-15T14:40:11;2.55;;;1.80;;
20375;SDS011;10347;51.828;6.466;2024-02-15T14:42:39;3.53;;;1.90;;
20375;SDS011;10347;51.828;6.466;2024-02-15T14:45:11;1.75;;;1.60;;
20375;SDS011;10347;51.828;6.466;2024-02-15T14:47:37;1.67;;;1.58;;
20375;SDS011;10347;51.828;6.466;2024-02-15T14:50:03;1.63;;;1.48;;
20375;SDS011;10347;51.828;6.466;2024-02-15T14:52:33;3.00;;;1.70;;
20375;SDS011;10347;51.828;6.466;2024-02-15T14:55:04;2.75;;;1.77;;
20375;SDS011;10347;51.828;6.466;2024-02-15T14:57:32;2.22;;;1.80;;
20375;SDS011;10347;51.828;6.466;2024-02-15T15:00:03;2.45;;;1.67;;
20375;SDS011;10347;51.828;6.466;2024-02-15T15:02:30;3.70;;;2.00;;
20375;SDS011;10347;51.828;6.466;2024-02-15T15:04:55;2.00;;;1.70;;
20375;SDS011;10347;51.828;6.466;2024-02-15T15:07:40;2.72;;;1.63;;